createdAt,value
2023-03-02T00:01:39.350Z,7.88
2023-03-02T00:04:40.663Z,8.70
2023-03-02T00:07:41.964Z,8.57
2023-03-02T00:10:43.260Z,8.47
2023-03-02T00:13:44.531Z,8.48
2023-03-02T00:16:45.826Z,10.07
2023-03-02T00:19:47.108Z,8.93
2023-03-02T00:22:48.404Z,9.48
2023-03-02T00:25:49.719Z,8.73
2023-03-02T00:28:51.034Z,9.05
2023-03-02T00:31:52.405Z,8.30
2023-03-02T00:34:53.775Z,8.45
2023-03-02T00:37:55.098Z,9.23
2023-03-02T00:40:56.380Z,8.37
2023-03-02T00:43:57.678Z,10.38
2023-03-02T00:46:58.996Z,8.65
2023-03-02T00:50:00.321Z,8.07
2023-03-02T00:53:01.607Z,8.13
2023-03-02T00:56:02.897Z,8.40
2023-03-02T00:59:04.191Z,7.85
2023-03-02T01:02:05.528Z,9.13
2023-03-02T01:05:06.851Z,7.88
2023-03-02T01:08:08.129Z,7.85
2023-03-02T01:11:09.420Z,8.27
2023-03-02T01:14:10.723Z,8.43
2023-03-02T01:17:12.004Z,7.72
2023-03-02T01:20:13.426Z,7.60
2023-03-02T01:23:14.714Z,8.20
2023-03-02T01:26:16.005Z,7.47
2023-03-02T01:29:17.301Z,8.65
2023-03-02T01:32:18.640Z,8.15
2023-03-02T01:35:19.967Z,7.47
2023-03-02T01:38:21.300Z,7.75
2023-03-02T01:41:22.619Z,8.80
2023-03-02T01:44:23.910Z,7.60
2023-03-02T01:47:25.206Z,7.65
2023-03-02T01:50:26.507Z,8.00
2023-03-02T01:53:27.798Z,7.32
2023-03-02T01:56:29.080Z,8.17
2023-03-02T01:59:30.393Z,7.45
2023-03-02T02:02:31.687Z,8.18
2023-03-02T02:05:32.980Z,7.55
2023-03-02T02:08:34.264Z,7.30
2023-03-02T02:11:35.546Z,7.30
2023-03-02T02:14:36.825Z,6.57
2023-03-02T02:17:38.129Z,7.53
2023-03-02T02:20:39.433Z,7.10
2023-03-02T02:23:40.739Z,6.85
2023-03-02T02:26:42.038Z,9.20
2023-03-02T02:29:43.344Z,7.28
2023-03-02T02:32:44.704Z,7.70
2023-03-02T02:35:46.054Z,7.13
2023-03-02T02:38:47.377Z,8.07
2023-03-02T02:41:48.702Z,6.60
2023-03-02T02:44:49.982Z,7.85
2023-03-02T02:47:51.264Z,7.72
2023-03-02T02:50:52.541Z,6.57
2023-03-02T02:53:53.832Z,6.07
2023-03-02T02:56:55.138Z,8.17
2023-03-02T02:59:56.434Z,6.45
2023-03-02T03:02:57.747Z,7.07
2023-03-02T03:05:59.050Z,6.18
2023-03-02T03:09:00.386Z,6.32
2023-03-02T03:12:01.691Z,6.50
2023-03-02T03:15:03.026Z,6.78
2023-03-02T03:18:04.386Z,7.47
2023-03-02T03:21:05.681Z,7.28
2023-03-02T03:24:06.992Z,7.15
2023-03-02T03:27:08.271Z,6.43
2023-03-02T03:30:09.553Z,7.20
2023-03-02T03:33:10.878Z,7.65
2023-03-02T03:36:12.212Z,6.85
2023-03-02T03:39:13.483Z,6.43
2023-03-02T03:42:14.771Z,6.10
2023-03-02T03:45:16.054Z,6.85
2023-03-02T03:48:17.353Z,6.35
2023-03-02T03:51:18.656Z,7.80
2023-03-02T03:54:19.969Z,7.00
2023-03-02T03:57:21.261Z,7.10
2023-03-02T04:00:22.601Z,6.82
2023-03-02T04:03:23.885Z,6.32
2023-03-02T04:06:25.247Z,7.18
2023-03-02T04:09:26.529Z,6.90
2023-03-02T04:12:27.824Z,8.13
2023-03-02T04:15:29.145Z,7.35
2023-03-02T04:18:30.468Z,7.05
2023-03-02T04:21:31.745Z,6.82
2023-03-02T04:24:33.039Z,6.50
2023-03-02T04:27:34.347Z,6.63
2023-03-02T04:30:35.650Z,6.65
2023-03-02T04:33:36.999Z,7.63
2023-03-02T04:36:38.615Z,6.35
2023-03-02T04:39:40.100Z,6.20
2023-03-02T04:42:41.389Z,7.37
2023-03-02T04:45:42.680Z,7.18
2023-03-02T04:48:43.976Z,6.10
2023-03-02T04:51:45.273Z,6.25
2023-03-02T04:54:46.574Z,7.00
2023-03-02T04:57:47.876Z,7.57
2023-03-02T05:00:49.173Z,6.80
2023-03-02T05:03:50.491Z,7.95
2023-03-02T05:06:51.793Z,6.68
2023-03-02T05:09:53.089Z,6.97
2023-03-02T05:12:54.417Z,7.43
2023-03-02T05:15:55.838Z,7.05
2023-03-02T05:18:57.137Z,7.07
2023-03-02T05:21:58.445Z,7.10
2023-03-02T05:24:59.710Z,7.20
2023-03-02T05:28:01.019Z,8.00
2023-03-02T05:31:02.416Z,6.90
2023-03-02T05:34:03.757Z,7.43
2023-03-02T05:37:05.055Z,7.50
2023-03-02T05:40:06.348Z,7.95
2023-03-02T05:43:07.657Z,6.93
2023-03-02T05:46:08.946Z,10.05
2023-03-02T05:49:10.273Z,8.88
2023-03-02T05:52:11.543Z,8.35
2023-03-02T05:55:12.846Z,8.25
2023-03-02T05:58:14.157Z,8.47
2023-03-02T06:01:15.712Z,8.70
2023-03-02T06:04:17.070Z,8.07
2023-03-02T06:07:18.361Z,7.63
2023-03-02T06:10:19.662Z,8.18
2023-03-02T06:13:20.957Z,9.40
2023-03-02T06:16:22.276Z,7.85
2023-03-02T06:19:23.616Z,10.23
2023-03-02T06:22:24.912Z,8.68
2023-03-02T06:25:26.204Z,7.50
2023-03-02T06:28:27.502Z,8.20
2023-03-02T06:31:28.923Z,7.68
2023-03-02T06:34:30.245Z,8.95
2023-03-02T06:37:31.539Z,7.78
2023-03-02T06:40:32.831Z,7.93
2023-03-02T06:43:34.250Z,8.60
2023-03-02T06:46:35.581Z,9.52
2023-03-02T06:49:36.865Z,10.05
2023-03-02T06:52:38.289Z,8.77
2023-03-02T06:55:39.619Z,65.63
2023-03-02T06:58:40.926Z,40.33
2023-03-02T07:01:42.248Z,31.02
2023-03-02T07:04:43.600Z,42.30
2023-03-02T07:07:44.908Z,33.13
2023-03-02T07:10:46.201Z,39.38
2023-03-02T07:13:47.537Z,33.10
2023-03-02T07:16:48.873Z,34.22
2023-03-02T07:19:50.191Z,22.77
2023-03-02T07:22:51.523Z,30.70
2023-03-02T07:25:52.846Z,30.42
2023-03-02T07:28:54.236Z,30.70
2023-03-02T07:31:55.536Z,33.20
2023-03-02T07:34:56.894Z,26.67
2023-03-02T07:37:58.200Z,30.52
2023-03-02T07:40:59.507Z,22.65
2023-03-02T07:44:00.809Z,24.07
2023-03-02T07:47:02.128Z,20.52
2023-03-02T07:50:03.450Z,23.40
2023-03-02T07:53:04.763Z,24.48
2023-03-02T07:56:06.058Z,23.17
2023-03-02T07:59:07.365Z,18.57
2023-03-02T08:02:08.720Z,23.70
2023-03-02T08:05:10.043Z,22.58
2023-03-02T08:08:11.351Z,24.17
2023-03-02T08:11:12.673Z,18.90
2023-03-02T08:14:14.013Z,23.40
2023-03-02T08:17:15.331Z,17.27
2023-03-02T08:20:16.630Z,15.63
2023-03-02T08:23:17.946Z,18.27
2023-03-02T08:26:19.259Z,15.85
2023-03-02T08:29:20.823Z,17.50
2023-03-02T08:32:22.244Z,22.25
2023-03-02T08:35:23.631Z,15.80
2023-03-02T08:38:24.965Z,19.77
2023-03-02T08:41:26.241Z,18.42
2023-03-02T08:44:27.610Z,18.13
2023-03-02T08:47:28.931Z,18.77
2023-03-02T08:50:30.239Z,15.68
2023-03-02T08:53:31.540Z,18.48
2023-03-02T08:56:33.095Z,37.65
2023-03-02T08:59:34.573Z,45.70
2023-03-02T09:02:35.876Z,43.03
2023-03-02T09:05:37.224Z,48.40
2023-03-02T09:08:38.511Z,39.13
2023-03-02T09:11:39.828Z,43.63
2023-03-02T09:14:41.125Z,29.07
2023-03-02T09:17:42.449Z,34.47
2023-03-02T09:20:43.741Z,38.25
2023-03-02T09:23:45.057Z,25.90
2023-03-02T09:26:46.364Z,31.00
2023-03-02T09:29:47.663Z,23.50
2023-03-02T09:32:49.181Z,27.75
2023-03-02T09:35:50.521Z,31.73
2023-03-02T09:38:51.848Z,29.17
2023-03-02T09:41:53.152Z,21.83
2023-03-02T09:44:54.469Z,23.33
2023-03-02T09:47:55.792Z,27.58
2023-03-02T09:50:57.084Z,24.17
2023-03-02T09:53:59.317Z,19.15
2023-03-02T09:57:00.714Z,18.65
2023-03-02T10:00:16.568Z,20.87
2023-03-02T10:03:19.918Z,19.05
2023-03-02T10:06:21.264Z,21.10
2023-03-02T10:09:22.580Z,22.65
2023-03-02T10:12:23.869Z,32.10
2023-03-02T10:15:25.185Z,22.53
2023-03-02T10:18:26.506Z,27.27
2023-03-02T10:21:27.818Z,30.52
2023-03-02T10:24:29.267Z,25.60
2023-03-02T10:27:30.599Z,26.20
2023-03-02T10:30:31.983Z,18.67
2023-03-02T10:33:33.325Z,26.75
2023-03-02T10:36:34.863Z,18.65
2023-03-02T10:39:36.320Z,16.48
2023-03-02T10:42:37.672Z,21.90
2023-03-02T10:45:38.973Z,18.00
2023-03-02T10:48:41.036Z,15.23
2023-03-02T10:51:42.472Z,19.98
2023-03-02T10:54:43.810Z,23.33
2023-03-02T10:57:45.102Z,18.02
2023-03-02T11:00:46.403Z,18.53
2023-03-02T11:03:47.717Z,18.75
2023-03-02T11:06:49.058Z,19.25
2023-03-02T11:09:50.356Z,18.55
2023-03-02T11:12:51.658Z,75.20
2023-03-02T11:15:53.001Z,58.47
2023-03-02T11:18:54.364Z,57.20
2023-03-02T11:21:55.706Z,54.33
2023-03-02T11:24:57.006Z,40.03
2023-03-02T11:27:58.296Z,32.42
2023-03-02T11:30:59.654Z,29.67
2023-03-02T11:34:07.941Z,37.33
2023-03-02T11:37:13.208Z,26.50
2023-03-02T11:40:14.545Z,27.48
2023-03-02T11:43:15.841Z,23.75
2023-03-02T11:46:21.691Z,31.53
2023-03-02T11:49:23.617Z,25.00
2023-03-02T11:52:24.941Z,22.75
2023-03-02T11:55:26.241Z,22.23
2023-03-02T11:58:27.613Z,24.17
2023-03-02T12:01:28.928Z,20.40
2023-03-02T12:04:30.223Z,25.10
2023-03-02T12:07:31.519Z,26.17
2023-03-02T12:10:32.834Z,26.63
2023-03-02T12:13:34.155Z,27.23
2023-03-02T12:16:35.947Z,19.00
2023-03-02T12:19:37.575Z,25.63
2023-03-02T12:22:38.910Z,21.20
2023-03-02T12:25:40.228Z,18.02
2023-03-02T12:28:41.539Z,23.52
2023-03-02T12:31:42.960Z,34.77
2023-03-02T12:34:44.287Z,27.98
2023-03-02T12:37:45.603Z,24.80
2023-03-02T12:40:46.907Z,22.25
2023-03-02T12:43:48.274Z,18.58
2023-03-02T12:46:49.676Z,26.50
2023-03-02T12:49:51.011Z,26.40
2023-03-02T12:52:52.301Z,29.13
2023-03-02T12:55:53.678Z,24.35
2023-03-02T12:58:55.969Z,22.83
2023-03-02T13:01:57.268Z,27.70
2023-03-02T13:04:58.592Z,21.00
2023-03-02T13:07:59.901Z,31.45
2023-03-02T13:11:01.268Z,41.95
2023-03-02T13:14:02.593Z,37.05
2023-03-02T13:17:04.019Z,27.07
2023-03-02T13:20:05.373Z,29.35
2023-03-02T13:23:06.681Z,25.50
2023-03-02T13:26:08.016Z,24.50
2023-03-02T13:29:09.347Z,29.00
2023-03-02T13:32:10.791Z,26.63
2023-03-02T13:35:12.124Z,30.23
2023-03-02T13:38:13.513Z,31.50
2023-03-02T13:41:14.841Z,20.80
2023-03-02T13:44:16.146Z,22.65
2023-03-02T13:47:17.435Z,23.50
2023-03-02T13:50:18.865Z,25.92
2023-03-02T13:53:20.202Z,21.85
2023-03-02T13:56:21.513Z,20.50
2023-03-02T13:59:22.789Z,26.15
2023-03-02T14:02:24.091Z,25.27
2023-03-02T14:05:25.518Z,25.23
2023-03-02T14:08:26.929Z,19.58
2023-03-02T14:11:28.219Z,23.85
2023-03-02T14:14:29.595Z,19.77
2023-03-02T14:17:30.915Z,17.97
2023-03-02T14:20:32.240Z,16.80
2023-03-02T14:23:33.561Z,27.50
2023-03-02T14:26:34.890Z,27.52
2023-03-02T14:29:36.207Z,34.22
2023-03-02T14:32:37.516Z,36.97
2023-03-02T14:35:38.879Z,28.33
2023-03-02T14:38:40.239Z,43.08
2023-03-02T14:41:52.873Z,23.88
2023-03-02T14:44:55.278Z,23.60
2023-03-02T14:47:56.620Z,22.53
2023-03-02T14:50:59.729Z,27.77
2023-03-02T14:54:02.387Z,25.45
2023-03-02T14:57:03.768Z,20.75
2023-03-02T15:00:05.079Z,20.30
2023-03-02T15:03:06.405Z,17.83
2023-03-02T15:06:07.761Z,17.90
2023-03-02T15:09:09.070Z,18.05
2023-03-02T15:12:10.378Z,25.33
2023-03-02T15:15:11.674Z,21.10
2023-03-02T15:18:13.012Z,31.83
2023-03-02T15:21:14.318Z,29.40
2023-03-02T15:24:15.651Z,18.05
2023-03-02T15:27:17.024Z,21.33
2023-03-02T15:30:18.346Z,19.10
2023-03-02T15:33:19.648Z,22.77
2023-03-02T15:36:20.959Z,19.88
2023-03-02T15:39:22.257Z,22.75
2023-03-02T15:42:23.578Z,21.60
2023-03-02T15:45:24.930Z,17.25
2023-03-02T15:48:26.225Z,20.40
2023-03-02T15:51:27.522Z,20.92
2023-03-02T15:54:28.822Z,22.50
2023-03-02T15:57:30.138Z,15.68
2023-03-02T16:00:31.493Z,20.08
2023-03-02T16:03:32.910Z,23.97
2023-03-02T16:06:34.227Z,27.10
2023-03-02T16:09:35.530Z,33.17
2023-03-02T16:12:36.827Z,35.00
2023-03-02T16:15:38.121Z,64.65
2023-03-02T16:18:39.432Z,36.23
2023-03-02T16:21:40.773Z,50.35
2023-03-02T16:24:42.105Z,36.95
2023-03-02T16:27:43.402Z,43.08
2023-03-02T16:30:44.860Z,32.00
2023-03-02T16:33:46.224Z,37.43
2023-03-02T16:36:47.532Z,29.17
2023-03-02T16:39:48.826Z,30.20
2023-03-02T16:42:50.132Z,25.80
2023-03-02T16:45:51.442Z,33.65
2023-03-02T16:48:52.889Z,29.97
2023-03-02T16:51:54.458Z,24.73
2023-03-02T16:54:55.910Z,25.77
2023-03-02T16:57:57.227Z,23.45
2023-03-02T17:00:58.673Z,27.25
2023-03-02T17:04:00.151Z,28.10
2023-03-02T17:07:01.709Z,28.52
2023-03-02T17:10:03.486Z,26.30
2023-03-02T17:13:04.899Z,22.55
2023-03-02T17:16:06.322Z,25.88
2023-03-02T17:19:07.694Z,25.10
2023-03-02T17:22:08.986Z,28.27
2023-03-02T17:25:10.587Z,35.83
2023-03-02T17:28:12.360Z,43.95
2023-03-02T17:31:13.791Z,37.63
2023-03-02T17:34:16.432Z,36.87
2023-03-02T17:37:17.802Z,34.33
2023-03-02T17:40:19.531Z,34.47
2023-03-02T17:43:21.014Z,30.35
2023-03-02T17:46:22.499Z,33.33
2023-03-02T17:49:23.960Z,31.10
2023-03-02T17:52:25.636Z,30.20
2023-03-02T17:55:27.346Z,27.92
2023-03-02T17:58:42.796Z,28.58
2023-03-02T18:01:46.233Z,23.90
2023-03-02T18:04:47.629Z,31.63
2023-03-02T18:07:49.015Z,28.35
2023-03-02T18:10:50.753Z,25.77
2023-03-02T18:13:52.154Z,24.42
2023-03-02T18:16:53.520Z,26.13
2023-03-02T18:19:54.902Z,26.40
2023-03-02T18:22:57.679Z,23.40
2023-03-02T18:25:59.293Z,23.98
2023-03-02T18:29:00.640Z,23.85
2023-03-02T18:32:02.439Z,24.13
2023-03-02T18:35:03.835Z,24.07
2023-03-02T18:38:05.386Z,22.98
2023-03-02T18:41:07.096Z,24.38
2023-03-02T18:44:08.785Z,22.25
2023-03-02T18:47:10.501Z,23.13
2023-03-02T18:50:12.110Z,21.33
2023-03-02T18:53:15.997Z,20.80
2023-03-02T18:56:17.809Z,21.67
2023-03-02T18:59:19.635Z,19.45
2023-03-02T19:02:21.480Z,20.63
2023-03-02T19:05:23.359Z,23.10
2023-03-02T19:08:25.231Z,20.60
2023-03-02T19:11:27.014Z,19.10
2023-03-02T19:14:28.818Z,20.88
2023-03-02T19:17:30.199Z,20.58
2023-03-02T19:20:34.785Z,21.87
2023-03-02T19:23:36.529Z,21.30
2023-03-02T19:26:38.308Z,21.17
2023-03-02T19:29:39.698Z,21.92
2023-03-02T19:32:41.548Z,22.20
2023-03-02T19:35:43.441Z,19.67
2023-03-02T19:38:45.371Z,22.77
2023-03-02T19:41:47.173Z,22.80
2023-03-02T19:44:49.044Z,22.67
2023-03-02T19:47:50.470Z,21.75
2023-03-02T19:50:52.178Z,20.17
2023-03-02T19:53:53.917Z,20.30
2023-03-02T19:56:55.295Z,20.38
2023-03-02T19:59:57.083Z,24.02
2023-03-02T20:02:58.961Z,20.98
2023-03-02T20:06:00.825Z,19.93
2023-03-02T20:09:02.693Z,22.75
2023-03-02T20:12:04.932Z,21.73
2023-03-02T20:15:07.793Z,20.58
2023-03-02T20:18:09.619Z,20.63
2023-03-02T20:21:11.747Z,21.00
2023-03-02T20:24:13.856Z,22.35
2023-03-02T20:27:16.067Z,21.55
2023-03-02T20:30:20.584Z,22.65
2023-03-02T20:33:21.968Z,20.80
2023-03-02T20:36:24.226Z,21.60
2023-03-02T20:39:26.041Z,22.20
2023-03-02T20:42:27.882Z,20.55
2023-03-02T20:45:29.620Z,20.05
2023-03-02T20:48:31.471Z,18.88
2023-03-02T20:51:33.230Z,19.63
2023-03-02T20:54:34.929Z,18.58
2023-03-02T20:57:36.776Z,20.52
2023-03-02T21:00:38.545Z,19.63
2023-03-02T21:03:40.383Z,21.88
2023-03-02T21:06:42.328Z,18.53
2023-03-02T21:09:44.155Z,18.25
2023-03-02T21:12:46.208Z,19.42
2023-03-02T21:15:48.101Z,20.77
2023-03-02T21:18:49.981Z,19.33
2023-03-02T21:21:51.559Z,17.20
2023-03-02T21:24:52.972Z,17.73
2023-03-02T21:27:54.685Z,19.65
2023-03-02T21:30:56.192Z,18.77
2023-03-02T21:33:57.764Z,18.90
2023-03-02T21:36:59.560Z,19.60
2023-03-02T21:40:00.931Z,17.15
2023-03-02T21:43:02.690Z,17.25
2023-03-02T21:46:04.482Z,18.33
2023-03-02T21:49:05.898Z,19.45
2023-03-02T21:52:07.206Z,17.63
2023-03-02T21:55:08.506Z,17.83
2023-03-02T21:58:09.802Z,18.08
2023-03-02T22:01:11.266Z,17.73
2023-03-02T22:04:13.194Z,18.90
2023-03-02T22:07:14.476Z,18.40
2023-03-02T22:10:15.893Z,16.92
2023-03-02T22:13:17.218Z,17.23
2023-03-02T22:16:18.635Z,18.52
2023-03-02T22:19:19.945Z,18.30
2023-03-02T22:22:21.254Z,16.70
2023-03-02T22:25:22.558Z,18.40
2023-03-02T22:28:23.876Z,17.38
2023-03-02T22:31:25.168Z,17.15
2023-03-02T22:34:26.487Z,16.02
2023-03-02T22:37:27.824Z,17.97
2023-03-02T22:40:29.113Z,16.23
2023-03-02T22:43:30.409Z,16.88
2023-03-02T22:46:31.733Z,16.15
2023-03-02T22:49:33.107Z,17.35
2023-03-02T22:52:34.412Z,16.00
2023-03-02T22:55:35.714Z,16.30
2023-03-02T22:58:37.028Z,16.90
2023-03-02T23:01:38.354Z,16.20
2023-03-02T23:04:39.733Z,15.10
2023-03-02T23:07:41.075Z,15.30
2023-03-02T23:10:42.378Z,15.23
2023-03-02T23:13:43.689Z,16.55
2023-03-02T23:16:44.979Z,14.82
2023-03-02T23:19:46.341Z,15.85
2023-03-02T23:22:47.614Z,14.30
2023-03-02T23:25:48.926Z,14.73
2023-03-02T23:28:50.213Z,16.23
2023-03-02T23:31:51.617Z,16.25
2023-03-02T23:34:52.954Z,14.82
2023-03-02T23:37:54.257Z,14.87
2023-03-02T23:40:55.555Z,14.80
2023-03-02T23:43:56.833Z,15.50
2023-03-02T23:46:58.170Z,14.68
2023-03-02T23:49:59.457Z,15.38
2023-03-02T23:53:00.764Z,15.77
2023-03-02T23:56:02.070Z,13.25
2023-03-02T23:59:03.372Z,14.10
